Time;durP1;ratioP1;P1;durP2;ratioP2;P2;SDS_P1;SDS_P2;PMS_P1;PMS_P2;Temp;Humidity;BMP_temperature;BMP_pressure;BME280_temperature;BME280_humidity;BME280_pressure;Samples;Min_cycle;Max_cycle;Signal;HPM_P1;HPM_P2
2022/03/28 02:42:50;;;;;;;3.83;2.27;;;;;;;9.15;46.43;95326.16;2614916;54;20453;-76
2022/03/28 02:45:27;;;;;;;1.70;1.70;;;;;;;9.21;47.00;95416.88;2614020;47;20163;-77
2022/03/28 02:47:56;;;;;;;5.27;2.30;;;;;;;8.19;49.05;95379.16;2615393;39;20574;-76
2022/03/28 02:50:25;;;;;;;2.57;2.37;;;;;;;7.59;49.68;95300.50;2614414;54;20157;-76
2022/03/28 02:52:54;;;;;;;2.20;1.53;;;;;;;8.05;50.10;95389.69;2614557;47;20173;-76
2022/03/28 02:55:23;;;;;;;1.20;1.03;;;;;;;9.84;49.88;95413.53;2614664;54;20180;-75
2022/03/28 02:57:55;;;;;;;1.47;1.47;;;;;;;9.14;46.43;95386.84;2614760;54;20722;-75
2022/03/28 03:00:23;;;;;;;2.40;2.17;;;;;;;8.41;49.72;95397.28;2615610;39;20910;-76
2022/03/28 03:02:53;;;;;;;2.00;1.20;;;;;;;8.41;49.90;95388.81;2615191;47;20180;-76
2022/03/28 03:05:23;;;;;;;4.53;1.97;;;;;;;8.25;49.44;95421.78;2614600;54;20173;-76
2022/03/28 03:08:00;;;;;;;1.27;1.17;;;;;;;8.63;51.67;95400.50;2614943;54;20168;-75
2022/03/28 03:10:29;;;;;;;1.17;1.17;;;;;;;9.47;47.09;95428.75;2616018;39;20593;-76
2022/03/28 03:13:00;;;;;;;3.10;1.90;;;;;;;9.48;48.90;95424.56;2615200;54;20290;-76
2022/03/28 03:15:29;;;;;;;1.87;1.73;;;;;;;9.98;45.45;95423.38;2615203;47;20192;-77
2022/03/28 03:17:57;;;;;;;1.83;1.73;;;;;;;8.93;47.49;95381.56;2616472;39;20607;-77
2022/03/28 03:20:26;;;;;;;2.80;2.70;;;;;;;10.31;46.85;95396.59;2615413;47;20164;-76
2022/03/28 03:22:55;;;;;;;5.47;4.73;;;;;;;9.67;46.21;95426.16;2614625;47;20990;-76
2022/03/28 03:25:24;;;;;;;2.50;1.87;;;;;;;11.09;46.49;95426.94;2615293;39;20247;-76
2022/03/28 03:27:53;;;;;;;2.30;2.10;;;;;;;9.61;45.81;95435.09;2613550;54;20215;-77
2022/03/28 03:30:33;;;;;;;2.13;2.00;;;;;;;10.15;47.79;95435.47;2614489;54;20152;-77
2022/03/28 03:33:02;;;;;;;2.17;1.90;;;;;;;9.83;45.68;95406.41;2614518;54;20173;-77
2022/03/28 03:35:30;;;;;;;3.17;2.10;;;;;;;9.96;47.62;95433.91;2614773;47;20307;-75
2022/03/28 03:37:59;;;;;;;3.83;2.03;;;;;;;10.65;44.27;95431.41;2614343;54;20381;-76
2022/03/28 03:40:28;;;;;;;6.73;1.97;;;;;;;9.69;46.75;95409.28;2615354;54;20227;-76
2022/03/28 03:42:57;;;;;;;2.17;1.87;;;;;;;9.39;46.58;95422.69;2615475;39;20857;-76
2022/03/28 03:45:31;;;;;;;2.10;1.90;;;;;;;10.40;46.38;95361.63;2615941;54;20164;-76
2022/03/28 03:47:59;;;;;;;1.63;1.63;;;;;;;9.24;46.93;95438.22;2614632;54;20255;-76
2022/03/28 03:50:28;;;;;;;1.30;1.20;;;;;;;8.79;48.55;95429.59;2615306;54;20164;-77
2022/03/28 03:52:57;;;;;;;2.53;1.73;;;;;;;8.95;47.56;95426.84;2614731;54;20264;-76
2022/03/28 03:55:26;;;;;;;2.00;1.90;;;;;;;8.49;48.32;95433.66;2615701;39;20583;-76
2022/03/28 03:57:54;;;;;;;4.57;1.60;;;;;;;8.23;49.43;95430.16;2615354;47;20256;-76
2022/03/28 04:00:23;;;;;;;2.23;2.07;;;;;;;7.72;51.70;95438.69;2615380;54;20272;-77
2022/03/28 04:02:55;;;;;;;3.80;3.43;;;;;;;7.73;50.75;95431.69;2616730;47;20168;-77
2022/03/28 04:05:32;;;;;;;3.13;2.73;;;;;;;7.12;51.35;95393.72;2615565;54;20315;-76
2022/03/28 04:08:02;;;;;;;3.40;2.03;;;;;;;9.19;51.09;95453.50;2614482;54;20172;-76
2022/03/28 04:10:31;;;;;;;2.23;1.93;;;;;;;9.50;48.12;95418.25;2614620;47;20168;-76
2022/03/28 04:13:00;;;;;;;1.53;1.50;;;;;;;11.29;45.63;95446.91;2614764;54;20232;-77
2022/03/28 04:15:29;;;;;;;1.57;1.50;;;;;;;11.15;43.89;95423.63;2614377;47;20207;-77
2022/03/28 04:18:00;;;;;;;3.03;1.90;;;;;;;10.58;46.28;95455.91;2614860;54;21036;-77
2022/03/28 04:20:29;;;;;;;2.27;2.03;;;;;;;11.61;43.81;95422.75;2614978;54;20673;-78
2022/03/28 04:22:58;;;;;;;1.50;1.43;;;;;;;11.87;44.13;95416.69;2616160;47;20748;-77
2022/03/28 04:25:27;;;;;;;2.43;1.90;;;;;;;12.19;43.66;95442.75;2615413;54;20256;-76
2022/03/28 04:27:59;;;;;;;1.27;1.27;;;;;;;11.80;41.66;95434.84;2614588;47;20164;-77
2022/03/28 04:30:34;;;;;;;3.97;2.20;;;;;;;10.60;44.81;95361.78;2615452;54;20164;-79
2022/03/28 04:33:07;;;;;;;6.28;3.95;;;;;;;10.33;45.61;95405.19;2614537;54;20420;-78
2022/03/28 04:35:36;;;;;;;2.67;2.47;;;;;;;9.76;46.44;95432.94;2613795;54;20252;-77
2022/03/28 04:38:07;;;;;;;2.80;2.70;;;;;;;9.45;46.40;95445.59;2614568;54;20181;-76
2022/03/28 04:40:46;;;;;;;3.23;1.83;;;;;;;8.42;49.11;95438.25;2614685;47;20360;-77
2022/03/28 04:43:16;;;;;;;1.53;1.53;;;;;;;7.55;51.63;95456.03;2615497;39;20435;-78
2022/03/28 04:45:44;;;;;;;2.20;1.87;;;;;;;6.99;52.76;95412.00;2615588;54;20152;-78
2022/03/28 04:48:16;;;;;;;1.60;1.50;;;;;;;7.58;52.47;95437.16;2614699;54;20796;-78
2022/03/28 04:50:46;;;;;;;1.20;1.07;;;;;;;7.68;51.97;95415.16;2615339;47;20689;-78
2022/03/28 04:53:27;;;;;;;2.67;2.47;;;;;;;7.68;51.15;95370.78;2615355;54;20168;-78
2022/03/28 04:55:55;;;;;;;0.97;0.93;;;;;;;8.34;51.07;95435.00;2615629;47;20242;-79
2022/03/28 04:58:27;;;;;;;3.30;2.77;;;;;;;8.46;50.08;95379.19;2616481;54;20185;-80
2022/03/28 05:03:47;;;;;;;3.73;2.43;;;;;;;10.95;46.27;95429.88;2615852;47;20308;-79
2022/03/28 05:06:35;;;;;;;1.90;1.77;;;;;;;11.23;44.35;95365.16;2615603;54;20169;-79
2022/03/28 05:09:20;;;;;;;2.20;2.10;;;;;;;10.79;43.06;95256.38;2616180;54;20165;-80
2022/03/28 05:12:07;;;;;;;3.03;1.80;;;;;;;11.14;42.16;95326.50;2615872;54;20191;-78
2022/03/28 05:14:48;;;;;;;1.10;1.10;;;;;;;11.33;42.79;95337.22;2616508;47;20171;-78
2022/03/28 05:23:35;;;;;;;2.63;2.43;;;;;;;11.40;41.86;95285.03;2614497;47;20240;-78
2022/03/28 05:26:07;;;;;;;2.00;1.87;;;;;;;12.54;40.78;95422.81;2614692;47;20165;-77
2022/03/28 05:28:47;;;;;;;7.70;3.30;;;;;;;11.82;39.93;95366.81;2615903;54;20248;-79
2022/03/28 05:31:21;;;;;;;2.43;2.23;;;;;;;11.37;41.98;95319.63;2615546;47;20656;-78
2022/03/28 05:33:50;;;;;;;3.37;2.93;;;;;;;12.15;41.00;95352.47;2616029;54;20671;-77
2022/03/28 05:39:03;;;;;;;2.93;2.73;;;;;;;12.71;41.47;95416.31;2615295;47;20199;-77
2022/03/28 05:41:35;;;;;;;5.30;2.60;;;;;;;12.15;39.39;95349.63;2615067;54;20177;-78
2022/03/28 05:44:04;;;;;;;4.83;3.53;;;;;;;12.33;39.55;95387.22;2615363;54;20169;-78
2022/03/28 05:46:33;;;;;;;5.20;2.37;;;;;;;12.59;41.04;95409.47;2615994;54;20165;-77
2022/03/28 05:49:41;;;;;;;3.17;2.30;;;;;;;11.91;39.93;95304.00;2615338;47;20165;-78
2022/03/28 05:52:29;;;;;;;6.83;2.63;;;;;;;13.37;38.46;95436.44;2612965;54;20184;-78
2022/03/28 05:54:58;;;;;;;3.47;2.30;;;;;;;12.23;41.25;95371.91;2613498;54;20180;-76
2022/03/28 05:57:27;;;;;;;4.20;2.57;;;;;;;13.12;40.27;95452.63;2614245;47;20157;-75
2022/03/28 05:59:55;;;;;;;5.60;3.43;;;;;;;13.02;39.49;95460.06;2614907;54;20252;-76
2022/03/28 06:02:24;;;;;;;3.30;2.93;;;;;;;12.46;40.62;95454.47;2615361;54;20177;-76
2022/03/28 06:04:54;;;;;;;2.80;2.60;;;;;;;13.48;40.04;95449.63;2614764;46;20442;-75
2022/03/28 06:07:32;;;;;;;2.77;2.60;;;;;;;14.05;39.08;95457.91;2615543;54;20203;-74
2022/03/28 06:10:01;;;;;;;4.40;2.77;;;;;;;14.46;38.21;95453.50;2615572;47;20316;-77
2022/03/28 06:12:30;;;;;;;3.00;2.70;;;;;;;14.65;38.02;95438.38;2616226;54;20207;-76
2022/03/28 06:14:59;;;;;;;7.20;2.70;;;;;;;14.85;35.86;95473.19;2615562;54;20165;-77
2022/03/28 06:17:44;;;;;;;;;;;;;;;;;;;;;
2022/03/28 06:20:19;;;;;;;6.63;3.90;;;;;;;15.08;36.76;95431.03;2616079;39;20599;-78
2022/03/28 06:36:18;;;;;;;2.80;2.63;;;;;;;15.40;36.81;95428.34;2611260;46;20152;-76
2022/03/28 06:39:00;;;;;;;2.90;2.50;;;;;;;15.97;36.07;95473.38;2612504;47;20181;-75
2022/03/28 06:57:20;;;;;;;3.67;2.70;;;;;;;12.28;39.46;95379.22;2615263;46;20176;-76
2022/03/28 07:03:26;;;;;;;2.93;2.53;;;;;;;14.48;37.28;95431.50;2614379;39;20279;-76
2022/03/28 07:05:54;;;;;;;3.23;2.23;;;;;;;12.82;38.82;95389.75;2615027;47;20665;-75
2022/03/28 07:08:44;;;;;;;3.47;2.87;;;;;;;12.23;40.11;95391.81;2614937;47;20965;-76
2022/03/28 07:11:26;;;;;;;1.40;1.40;;;;;;;13.52;39.35;95475.38;2614010;47;20160;-75
2022/03/28 07:13:55;;;;;;;1.70;1.37;;;;;;;13.46;39.09;95473.03;2615524;54;20157;-76
2022/03/28 07:16:24;;;;;;;2.37;2.17;;;;;;;13.99;38.17;95474.81;2614991;39;20666;-74
2022/03/28 07:18:53;;;;;;;5.30;3.10;;;;;;;13.94;38.10;95466.81;2614823;54;20165;-76
2022/03/28 07:21:21;;;;;;;1.87;1.77;;;;;;;14.26;38.26;95450.00;2614594;47;20169;-75
2022/03/28 07:23:52;;;;;;;3.57;2.63;;;;;;;14.70;37.33;95442.81;2616240;31;20737;-77
2022/03/28 07:26:26;;;;;;;15.63;8.23;;;;;;;15.18;36.41;95480.53;2614730;47;20172;-74
2022/03/28 07:28:58;;;;;;;4.47;2.33;;;;;;;15.41;35.67;95484.03;2614737;46;20168;-75
2022/03/28 07:31:39;;;;;;;3.30;3.07;;;;;;;14.72;36.34;95411.50;2612672;54;20156;-76
2022/03/28 07:36:55;;;;;;;3.60;2.17;;;;;;;14.29;37.91;95465.75;2614158;47;20268;-75
2022/03/28 07:39:29;;;;;;;3.97;2.97;;;;;;;14.11;37.92;95426.75;2614816;54;20161;-76
2022/03/28 07:42:02;;;;;;;2.90;1.97;;;;;;;14.64;36.72;95439.03;2614960;54;20193;-75
2022/03/28 07:48:19;;;;;;;3.83;3.37;;;;;;;14.67;35.80;95387.13;2613603;54;20168;-74
2022/03/28 07:51:07;;;;;;;4.43;3.50;;;;;;;14.17;36.75;95387.06;2613414;47;20720;-75
2022/03/28 07:53:41;;;;;;;2.00;1.90;;;;;;;13.85;36.83;95312.75;2613926;47;20168;-77
2022/03/28 07:56:11;;;;;;;1.93;1.73;;;;;;;14.86;37.54;95377.69;2614282;47;20168;-77
2022/03/28 07:58:42;;;;;;;2.27;2.17;;;;;;;14.72;37.64;95434.31;2614245;54;20160;-78
2022/03/28 08:01:26;;;;;;;1.70;1.60;;;;;;;15.18;36.71;95454.13;2614209;51;20353;-78
2022/03/28 08:04:24;;;;;;;2.90;2.67;;;;;;;15.07;36.33;95339.00;2615853;54;20159;-76
2022/03/28 08:06:55;;;;;;;2.57;1.93;;;;;;;16.24;34.58;95421.16;2614995;47;20176;-76
2022/03/28 08:09:25;;;;;;;3.40;2.87;;;;;;;15.80;34.67;95386.56;2615155;54;20168;-76
2022/03/28 08:11:56;;;;;;;4.27;1.77;;;;;;;16.48;35.41;95406.69;2615520;47;20220;-76
2022/03/28 08:14:53;;;;;;;3.57;3.37;;;;;;;14.50;35.74;95353.84;2615746;47;20164;-76
2022/03/28 08:17:34;;;;;;;2.97;2.67;;;;;;;15.64;34.11;95331.91;2616180;47;20163;-77
2022/03/28 08:20:03;;;;;;;3.33;2.93;;;;;;;15.64;35.42;95443.25;2614476;47;20172;-77
2022/03/28 08:22:38;;;;;;;2.77;2.57;;;;;;;15.25;35.65;95441.50;2615882;39;20534;-75
2022/03/28 08:25:07;;;;;;;2.70;2.07;;;;;;;15.69;35.62;95424.13;2615064;47;20160;-75
2022/03/28 08:27:37;;;;;;;2.43;2.23;;;;;;;15.69;36.63;95418.41;2615902;54;20183;-75
2022/03/28 08:30:09;;;;;;;3.93;2.37;;;;;;;16.13;35.50;95428.03;2615397;47;20165;-76
2022/03/28 08:32:38;;;;;;;3.50;2.27;;;;;;;16.05;37.18;95415.69;2616728;47;20743;-77
2022/03/28 08:35:08;;;;;;;4.17;3.87;;;;;;;15.61;35.07;95428.22;2616217;54;20153;-75
2022/03/28 08:37:40;;;;;;;2.27;1.83;;;;;;;16.21;34.95;95411.09;2616322;54;20668;-76
2022/03/28 08:40:10;;;;;;;2.73;2.07;;;;;;;16.63;34.31;95396.31;2614986;47;20165;-75
2022/03/28 08:42:54;;;;;;;;;;;;;;;;;;;;;
2022/03/28 08:45:26;;;;;;;3.40;2.43;;;;;;;17.19;33.31;95353.06;2614227;46;20165;-75
2022/03/28 08:48:09;;;;;;;3.90;3.60;;;;;;;16.23;33.46;95333.97;2612016;54;20169;-76
2022/03/28 08:57:29;;;;;;;3.30;2.37;;;;;;;16.25;35.11;95262.56;2613810;46;20666;-75
2022/03/28 09:03:47;;;;;;;4.87;2.27;;;;;;;17.26;33.38;95271.56;2615794;46;20168;-75
2022/03/28 09:06:36;;;;;;;2.43;2.03;;;;;;;18.57;32.25;95375.31;2615351;47;20169;-76
2022/03/28 09:09:19;;;;;;;2.60;2.23;;;;;;;18.23;31.53;95367.66;2614697;54;20161;-76
2022/03/28 09:11:53;;;;;;;2.43;2.20;;;;;;;18.35;31.15;95381.44;2616065;47;20161;-77
2022/03/28 09:14:47;;;;;;;3.40;2.20;;;;;;;18.43;31.83;95385.19;2615894;54;20179;-77
2022/03/28 09:18:19;;;;;;;2.37;1.97;;;;;;;16.26;33.62;95206.81;2615993;46;20172;-77
2022/03/28 09:20:54;;;;;;;5.60;2.97;;;;;;;17.80;34.26;95359.84;2613519;54;20180;-75
2022/03/28 09:23:49;;;;;;;6.30;2.37;;;;;;;16.30;32.51;95232.63;2615324;47;20172;-75
2022/03/28 09:26:20;;;;;;;2.83;2.63;;;;;;;17.27;32.94;95273.75;2615249;54;20199;-76
2022/03/28 09:28:53;;;;;;;3.33;3.10;;;;;;;17.78;32.09;95346.19;2614823;47;20782;-76
2022/03/28 09:31:36;;;;;;;2.20;2.00;;;;;;;16.74;32.35;95225.63;2615388;47;20157;-77
2022/03/28 09:34:13;;;;;;;6.33;2.93;;;;;;;16.92;33.60;95283.88;2614675;54;20152;-76
2022/03/28 09:37:20;;;;;;;2.33;2.13;;;;;;;17.97;33.44;95353.66;2613543;54;20176;-76
2022/03/28 09:43:37;;;;;;;3.00;2.80;;;;;;;16.38;32.96;95211.34;2613211;47;20219;-76
2022/03/28 09:48:53;;;;;;;4.70;3.13;;;;;;;17.64;33.01;95326.63;2613482;46;20191;-76
2022/03/28 09:51:26;;;;;;;2.73;2.53;;;;;;;17.64;32.47;95242.84;2614952;54;20160;-76
2022/03/28 10:01:18;;;;;;;3.20;2.63;;;;;;;19.23;31.78;95308.63;2613764;47;21057;-74
2022/03/28 10:07:00;;;;;;;5.63;3.07;;;;;;;16.95;32.64;95210.22;2613676;39;20706;-77
2022/03/28 10:09:29;;;;;;;3.03;2.60;;;;;;;17.80;33.28;95276.75;2615704;47;20177;-75
2022/03/28 10:11:58;;;;;;;2.13;1.80;;;;;;;18.72;33.03;95288.03;2617567;54;20168;-76
2022/03/28 10:14:27;;;;;;;3.90;2.73;;;;;;;18.42;31.51;95274.00;2618916;47;20682;-76
2022/03/28 10:16:59;;;;;;;4.57;2.37;;;;;;;18.29;31.04;95246.59;2619192;47;20713;-76
2022/03/28 10:19:28;;;;;;;4.50;3.23;;;;;;;18.96;30.55;95273.94;2615374;54;20153;-75
2022/03/28 10:22:11;;;;;;;2.83;2.37;;;;;;;19.05;30.46;95249.59;2615476;47;20231;-78
2022/03/28 10:27:57;;;;;;;3.23;3.03;;;;;;;18.37;31.87;95218.00;2614945;46;20177;-76
2022/03/28 10:31:15;;;;;;;2.80;2.60;;;;;;;17.84;31.08;95084.84;2615537;54;20156;-77
2022/03/28 10:38:09;;;;;;;2.80;2.60;;;;;;;19.84;30.41;95235.88;2614377;47;20177;-78
2022/03/28 10:41:30;;;;;;;3.53;3.20;;;;;;;19.07;30.13;95235.28;2615909;54;20231;-77
2022/03/28 10:44:07;;;;;;;4.60;3.20;;;;;;;17.93;31.14;95135.06;2615271;47;20168;-77
2022/03/28 10:46:49;;;;;;;4.03;2.90;;;;;;;18.33;31.52;95224.41;2615015;47;20673;-78
2022/03/28 10:56:40;;;;;;;4.27;3.23;;;;;;;17.78;31.39;95142.78;2614474;47;20153;-76
2022/03/28 11:03:00;;;;;;;2.90;2.13;;;;;;;17.92;31.86;95145.81;2613948;46;20149;-78
2022/03/28 11:05:31;;;;;;;5.63;3.63;;;;;;;18.05;32.03;95173.19;2613384;54;20191;-76
2022/03/28 11:08:38;;;;;;;3.63;2.40;;;;;;;17.85;31.33;95175.84;2615047;39;20263;-79
2022/03/28 11:21:32;;;;;;;7.40;3.03;;;;;;;18.42;31.47;95171.50;2613265;39;20461;-79
2022/03/28 11:24:16;;;;;;;6.43;3.30;;;;;;;18.31;32.84;95098.22;2613993;54;20188;-78
2022/03/28 11:26:59;;;;;;;5.33;4.10;;;;;;;18.90;30.10;95147.56;2612891;47;20430;-77
2022/03/28 11:29:50;;;;;;;6.60;3.50;;;;;;;19.15;29.96;95166.44;2612982;47;20149;-78
2022/03/28 11:32:20;;;;;;;6.57;4.17;;;;;;;18.22;30.40;95108.19;2611332;54;20179;-74
2022/03/28 11:34:53;;;;;;;7.03;3.33;;;;;;;17.90;31.98;95091.38;2614601;47;20181;-75
2022/03/28 11:44:13;;;;;;;3.70;2.77;;;;;;;16.71;32.31;94990.31;2612808;47;20682;-77
2022/03/28 11:47:09;;;;;;;2.27;2.17;;;;;;;17.72;31.86;95134.84;2611977;47;20177;-76
2022/03/28 11:50:03;;;;;;;3.20;2.90;;;;;;;17.70;31.98;95091.13;2612012;54;20205;-76
2022/03/28 11:52:35;;;;;;;2.83;2.17;;;;;;;17.32;32.26;95085.59;2614888;54;20183;-76
2022/03/28 12:20:44;;;;;;;2.40;2.20;;;;;;;17.85;31.83;95046.16;2612788;47;20169;-76
2022/03/28 12:26:23;;;;;;;2.30;2.10;;;;;;;18.66;30.23;95087.09;2614002;47;20160;-76
2022/03/28 12:31:33;;;;;;;2.33;2.13;;;;;;;17.55;30.56;94978.50;2614084;47;20203;-79
2022/03/28 12:34:29;;;;;;;3.17;2.93;;;;;;;18.78;28.54;95061.38;2616200;54;20272;-77
2022/03/28 12:37:01;;;;;;;4.13;2.60;;;;;;;18.68;29.68;94996.03;2614629;54;20689;-78
2022/03/28 12:39:30;;;;;;;3.47;2.30;;;;;;;19.49;31.69;95047.47;2614854;54;20173;-78
2022/03/28 12:42:04;;;;;;;2.80;2.60;;;;;;;19.29;30.03;95012.88;2614483;47;20208;-78
2022/03/28 12:44:40;;;;;;;2.40;2.27;;;;;;;19.38;28.48;95017.25;2614661;54;20160;-77
2022/03/28 12:47:10;;;;;;;2.97;2.70;;;;;;;18.56;29.35;95038.25;2614146;54;20145;-75
2022/03/28 12:49:46;;;;;;;3.93;2.70;;;;;;;18.14;29.61;95022.09;2614057;47;20173;-76
2022/03/28 12:52:39;;;;;;;4.70;2.10;;;;;;;19.05;29.80;95048.66;2614528;47;20172;-75
2022/03/28 12:55:11;;;;;;;3.63;2.40;;;;;;;18.78;28.75;95039.16;2614244;47;20168;-76
2022/03/28 13:01:42;;;;;;;3.47;2.20;;;;;;;18.61;30.07;95013.91;2613398;47;20164;-76
2022/03/28 13:14:12;;;;;;;4.87;2.77;;;;;;;18.02;29.19;94968.25;2614477;47;20175;-75
2022/03/28 13:20:25;;;;;;;2.33;1.93;;;;;;;18.26;31.70;94941.94;2614823;46;20200;-75
2022/03/28 13:28:01;;;;;;;6.13;2.63;;;;;;;17.93;28.82;94997.53;2614898;47;20735;-76
2022/03/28 13:29:43;;;;;;;5.17;2.00;;;;;;;18.37;29.26;94997.22;2616700;47;20191;-75
2022/03/28 13:32:22;;;;;;;2.30;2.20;;;;;;;17.80;28.01;94904.28;2615769;47;20693;-74
2022/03/28 13:35:25;;;;;;;6.33;2.93;;;;;;;17.92;28.08;94912.97;2615385;47;20160;-75
2022/03/28 13:38:05;;;;;;;4.30;3.20;;;;;;;18.36;27.73;94933.41;2612191;54;20410;-74
2022/03/28 13:40:47;;;;;;;2.90;2.50;;;;;;;18.43;27.91;94928.44;2616108;54;20145;-74
2022/03/28 13:43:46;;;;;;;2.57;2.27;;;;;;;19.23;27.53;94993.50;2615343;54;20180;-76
2022/03/28 13:46:18;;;;;;;1.67;1.47;;;;;;;19.11;29.13;94979.78;2615975;54;20241;-75
2022/03/28 13:48:47;;;;;;;3.50;1.90;;;;;;;19.15;28.72;94938.88;2615151;54;20161;-76
2022/03/28 13:51:22;;;;;;;2.17;2.07;;;;;;;19.48;27.12;94948.34;2614709;54;20199;-75
2022/03/28 13:54:12;;;;;;;4.57;2.60;;;;;;;20.10;26.73;94976.50;2613074;47;20168;-77
2022/03/28 13:56:44;;;;;;;3.63;2.87;;;;;;;18.95;25.41;94878.53;2614986;47;20275;-78
2022/03/28 14:03:13;;;;;;;3.80;2.47;;;;;;;19.98;26.35;94978.66;2612420;46;20184;-77
2022/03/28 14:47:52;;;;;;;2.40;1.77;;;;;;;17.86;24.39;94746.78;2612505;54;20242;-76
2022/03/28 15:08:10;;;;;;;;;;;;;;;;;;;;;
2022/03/28 15:11:26;;;;;;;1.13;1.03;;;;;;;18.31;20.77;94896.81;2613025;54;20207;-77
2022/03/28 15:13:57;;;;;;;5.85;2.60;;;;;;;17.89;23.78;94789.06;2610704;54;20408;-76
2022/03/28 15:16:35;;;;;;;2.47;2.27;;;;;;;17.55;23.22;94852.50;2612219;53;20172;-76
2022/03/28 15:19:05;;;;;;;2.63;1.97;;;;;;;17.57;24.05;94869.69;2614705;31;20609;-76
2022/03/28 15:21:33;;;;;;;1.43;1.33;;;;;;;17.92;23.43;94898.66;2613148;54;20191;-77
2022/03/28 15:24:02;;;;;;;1.80;1.63;;;;;;;17.68;24.13;94882.00;2611969;47;20192;-78
2022/03/28 15:26:31;;;;;;;1.60;1.50;;;;;;;18.19;23.67;94897.44;2613675;47;20165;-78
2022/03/28 15:29:10;;;;;;;3.87;1.33;;;;;;;18.28;23.51;94876.00;2611616;54;20152;-81
2022/03/28 15:34:52;;;;;;;1.50;1.10;;;;;;;18.22;24.00;94889.56;2615104;47;20565;-78
2022/03/28 15:37:38;;;;;;;2.07;1.70;;;;;;;17.66;23.97;94861.91;2615295;54;20189;-78
2022/03/28 15:43:07;;;;;;;4.77;1.70;;;;;;;16.94;24.20;94736.75;2613778;54;20707;-77
2022/03/28 15:45:44;;;;;;;1.40;1.10;;;;;;;17.07;24.59;94823.41;2614797;54;20709;-76
2022/03/28 15:48:13;;;;;;;1.20;1.10;;;;;;;17.69;25.60;94880.56;2615165;54;20152;-77
2022/03/28 15:50:42;;;;;;;1.73;1.63;;;;;;;17.75;25.55;94881.34;2614849;47;20195;-77
2022/03/28 15:53:12;;;;;;;1.63;1.53;;;;;;;17.52;25.56;94847.44;2614040;47;20160;-77
2022/03/28 15:55:51;;;;;;;1.10;1.07;;;;;;;17.52;25.24;94871.06;2610595;47;20176;-76
2022/03/28 15:58:20;;;;;;;1.70;1.60;;;;;;;17.32;25.40;94862.31;2614633;46;20180;-78
2022/03/28 16:00:51;;;;;;;1.00;1.00;;;;;;;17.44;25.49;94859.56;2613756;47;20184;-76
2022/03/28 16:03:20;;;;;;;2.78;1.92;;;;;;;17.75;25.26;94881.34;2609753;47;20388;-77
2022/03/28 16:06:13;;;;;;;1.77;1.67;;;;;;;17.21;25.44;94774.91;2611565;47;20173;-75
2022/03/28 16:11:35;;;;;;;1.67;1.13;;;;;;;17.18;27.11;94804.91;2609672;47;20260;-74
2022/03/28 16:14:07;;;;;;;1.97;1.87;;;;;;;17.50;25.83;94836.69;2612302;54;20211;-76
2022/03/28 16:16:40;;;;;;;4.03;1.63;;;;;;;17.21;25.27;94800.66;2614446;54;20180;-74
2022/03/28 16:19:11;;;;;;;1.63;1.57;;;;;;;17.63;26.58;94860.44;2614380;54;20153;-78
2022/03/28 16:21:41;;;;;;;2.60;2.40;;;;;;;17.34;26.57;94865.19;2614856;54;20164;-76
2022/03/28 16:24:16;;;;;;;1.77;1.67;;;;;;;17.19;26.70;94840.69;2614571;54;20165;-76
2022/03/28 16:29:29;;;;;;;2.80;2.50;;;;;;;16.54;27.39;94765.59;2616081;47;20252;-76
2022/03/28 16:32:01;;;;;;;4.57;2.10;;;;;;;16.98;27.06;94851.91;2616778;54;20163;-75
2022/03/28 16:34:29;;;;;;;2.80;2.40;;;;;;;16.84;27.47;94820.28;2615068;54;20161;-76
2022/03/28 16:37:01;;;;;;;1.70;1.60;;;;;;;17.14;26.94;94833.50;2618215;47;20188;-76
2022/03/28 16:39:29;;;;;;;2.73;1.97;;;;;;;17.24;26.54;94848.63;2614537;47;20710;-75
2022/03/28 16:42:01;;;;;;;1.90;1.20;;;;;;;17.04;26.32;94809.09;2615997;54;20141;-75
2022/03/28 16:44:31;;;;;;;2.60;2.47;;;;;;;17.02;26.05;94811.91;2616395;54;20176;-76
2022/03/28 16:47:05;;;;;;;1.30;1.13;;;;;;;17.12;26.11;94819.88;2615543;47;20204;-75
2022/03/28 16:49:34;;;;;;;0.97;0.97;;;;;;;16.77;26.59;94818.81;2616048;39;20595;-75
2022/03/28 16:52:03;;;;;;;2.77;2.50;;;;;;;16.58;26.15;94826.41;2615121;39;20560;-74
2022/03/28 16:54:34;;;;;;;3.70;1.40;;;;;;;16.68;29.72;94817.97;2614295;47;20681;-76
2022/03/28 16:57:08;;;;;;;1.77;1.67;;;;;;;16.90;25.99;94811.06;2612525;39;20584;-76
2022/03/28 16:59:43;;;;;;;1.80;1.27;;;;;;;16.85;25.78;94827.47;2614104;46;20169;-76
2022/03/28 17:02:15;;;;;;;2.47;2.30;;;;;;;16.20;25.28;94700.91;2613723;47;20396;-77
2022/03/28 17:04:43;;;;;;;1.53;1.43;;;;;;;16.69;26.12;94804.38;2614251;54;20311;-77
2022/03/28 17:07:12;;;;;;;3.00;1.63;;;;;;;16.24;25.85;94763.81;2615853;39;20659;-76
2022/03/28 17:09:41;;;;;;;1.50;1.40;;;;;;;16.33;25.74;94771.06;2615038;54;20586;-77
2022/03/28 17:12:20;;;;;;;;;;;;;;;;;;;;;
2022/03/28 17:14:53;;;;;;;2.83;1.77;;;;;;;16.48;27.00;94808.41;2615973;54;20152;-76
2022/03/28 17:17:24;;;;;;;1.33;1.33;;;;;;;16.37;25.79;94786.84;2616163;54;20184;-75
2022/03/28 17:19:54;;;;;;;2.17;2.07;;;;;;;15.97;25.33;94777.03;2616430;54;20153;-77
2022/03/28 17:22:23;;;;;;;1.03;1.03;;;;;;;16.15;24.30;94802.25;2616117;47;20187;-77
2022/03/28 17:25:02;;;;;;;;;;;;;;;;;;;;;
2022/03/28 17:27:31;;;;;;;5.63;1.80;;;;;;;15.80;24.78;94783.94;2616412;54;20149;-79
2022/03/28 17:30:00;;;;;;;2.15;1.67;;;;;;;15.97;25.64;94796.31;2615855;54;20392;-78
2022/03/28 17:32:32;;;;;;;1.63;1.57;;;;;;;15.74;25.97;94783.13;2616314;47;20169;-78
2022/03/28 17:35:00;;;;;;;1.70;1.60;;;;;;;15.82;26.51;94808.94;2616597;54;20177;-78
2022/03/28 17:37:29;;;;;;;1.20;1.10;;;;;;;15.64;27.05;94775.84;2614775;54;20152;-77
2022/03/28 17:40:01;;;;;;;1.83;1.67;;;;;;;15.57;28.13;94774.34;2615127;46;20164;-76
2022/03/28 17:42:37;;;;;;;1.87;1.33;;;;;;;15.74;27.40;94811.66;2615373;47;20792;-77
2022/03/28 17:45:10;;;;;;;1.13;1.13;;;;;;;15.41;28.44;94762.63;2615346;47;20216;-79
2022/03/28 17:47:59;;;;;;;2.17;1.92;;;;;;;15.52;28.02;94769.22;2616038;39;21019;-78
2022/03/28 17:50:28;;;;;;;1.73;1.63;;;;;;;15.53;27.70;94765.66;2613086;54;20161;-80
2022/03/28 17:52:58;;;;;;;1.57;1.47;;;;;;;15.59;27.87;94814.31;2616190;47;20168;-79
2022/03/28 17:55:30;;;;;;;2.43;1.80;;;;;;;15.55;28.17;94807.81;2616280;54;20199;-78
2022/03/28 17:58:04;;;;;;;2.45;2.25;;;;;;;15.49;28.20;94794.16;2614858;54;20443;-77
2022/03/28 18:00:40;;;;;;;1.20;1.20;;;;;;;15.57;28.84;94805.00;2615097;54;20171;-79
2022/03/28 18:03:12;;;;;;;1.40;1.30;;;;;;;15.09;29.12;94753.53;2616891;47;20164;-80
2022/03/28 18:05:41;;;;;;;1.67;1.57;;;;;;;15.26;28.53;94778.81;2615667;54;20827;-80
2022/03/28 18:08:10;;;;;;;2.67;2.50;;;;;;;15.25;28.67;94790.91;2615287;47;20188;-77
2022/03/28 18:13:23;;;;;;;1.63;1.53;;;;;;;14.81;30.58;94720.28;2616018;47;20173;-79
2022/03/28 18:15:52;;;;;;;1.57;1.47;;;;;;;15.56;28.30;94803.56;2615614;54;20157;-78
2022/03/28 18:18:32;;;;;;;3.37;3.00;;;;;;;15.78;34.37;94780.31;2615966;54;20164;-78
2022/03/28 18:21:05;;;;;;;9.83;2.67;;;;;;;16.15;34.71;94822.28;2616246;39;20602;-79
2022/03/28 18:23:36;;;;;;;2.23;2.03;;;;;;;16.30;34.73;94829.63;2612458;54;20180;-77
2022/03/28 18:26:08;;;;;;;3.40;3.10;;;;;;;16.20;35.29;94818.06;2615209;54;20212;-77
2022/03/28 18:28:37;;;;;;;4.23;2.23;;;;;;;16.04;35.40;94789.25;2615019;47;20195;-77
2022/03/28 18:31:06;;;;;;;5.90;4.63;;;;;;;15.87;36.10;94804.72;2614541;54;20408;-77
2022/03/28 18:33:38;;;;;;;4.80;2.80;;;;;;;15.82;36.21;94791.81;2614661;54;20157;-77
2022/03/28 18:36:07;;;;;;;2.80;2.07;;;;;;;16.25;35.62;94833.13;2615121;54;20168;-78
2022/03/28 18:38:36;;;;;;;3.50;2.70;;;;;;;16.10;34.88;94815.06;2615911;39;20621;-77
2022/03/28 18:41:12;;;;;;;3.43;2.50;;;;;;;15.93;36.61;94828.41;2614748;54;20164;-78
2022/03/28 18:43:43;;;;;;;2.53;2.00;;;;;;;15.79;37.04;94838.88;2614815;54;20160;-77
2022/03/28 18:46:13;;;;;;;3.03;2.30;;;;;;;15.53;37.18;94830.59;2614863;47;20327;-78
2022/03/28 18:48:44;;;;;;;4.83;2.60;;;;;;;15.25;37.84;94836.56;2614757;47;20153;-77
2022/03/28 18:51:13;;;;;;;3.63;2.80;;;;;;;15.44;37.88;94837.59;2614624;47;20248;-78
2022/03/28 18:53:42;;;;;;;4.00;3.20;;;;;;;15.37;39.01;94844.59;2614668;54;20165;-77
2022/03/28 18:56:12;;;;;;;5.37;3.37;;;;;;;15.59;37.26;94825.72;2615235;47;20684;-77
2022/03/28 18:58:42;;;;;;;3.90;2.33;;;;;;;15.60;36.77;94803.59;2614800;47;20272;-78
2022/03/28 19:01:11;;;;;;;10.43;3.00;;;;;;;15.35;36.85;94784.63;2615058;46;20191;-77
2022/03/28 19:03:48;;;;;;;3.87;3.20;;;;;;;15.66;37.75;94840.09;2614586;47;20244;-78